Blankenberge, Belgium
Current Conditions -  °F | °C
As of 5:50 AM on Sunday 26 Oct 2014 (Local Time) from EBOS Reporting Station
Broken Clouds Broken Clouds  
Wind Chill: 54°   Ceiling: 3200
Heat Index: 54°   Visibility: 6mi
Dew Point: 48°   Wind: 6mph
Humidity: 82%   Direction: 200°SSW
Pressure: 30.21"   Gusts: NA
Location:  51.31°N, 3.13°E
Report Text: EBOS 260350Z 20005KT 9999 FEW025 BKN032 12/09 Q1023 NOSIG
Loading
Personal Weather Stations






























Interactive Weather Map New forecast layout! Learn more

10-Day Weather Forecast

Advertisements
Track Severe Weather on mobile